sensor_id;sensor_type;location;lat;lon;timestamp;pressure;altitude;pressure_sealevel;temperature;humidity
48204;BME280;33994;50.998;5.864;2023-03-22T00:01:23;100573.75;;;11.08;83.16
48204;BME280;33994;50.998;5.864;2023-03-22T00:04:27;100569.53;;;11.03;83.36
48204;BME280;33994;50.998;5.864;2023-03-22T00:07:30;100557.41;;;10.99;83.61
48204;BME280;33994;50.998;5.864;2023-03-22T00:10:35;100556.63;;;10.93;83.64
48204;BME280;33994;50.998;5.864;2023-03-22T00:13:39;100550.63;;;10.88;83.90
48204;BME280;33994;50.998;5.864;2023-03-22T00:16:44;100537.66;;;10.84;84.25
48204;BME280;33994;50.998;5.864;2023-03-22T00:19:47;100537.78;;;10.76;84.46
48204;BME280;33994;50.998;5.864;2023-03-22T00:22:51;100536.13;;;10.70;84.72
48204;BME280;33994;50.998;5.864;2023-03-22T00:25:54;100539.69;;;10.68;84.79
48204;BME280;33994;50.998;5.864;2023-03-22T00:28:58;100537.13;;;10.65;84.90
48204;BME280;33994;50.998;5.864;2023-03-22T00:32:03;100532.88;;;10.59;85.19
48204;BME280;33994;50.998;5.864;2023-03-22T00:35:08;100532.97;;;10.55;85.32
48204;BME280;33994;50.998;5.864;2023-03-22T00:38:11;100538.28;;;10.50;85.53
48204;BME280;33994;50.998;5.864;2023-03-22T00:41:16;100534.00;;;10.46;85.64
48204;BME280;33994;50.998;5.864;2023-03-22T00:44:20;100534.91;;;10.43;85.66
48204;BME280;33994;50.998;5.864;2023-03-22T00:47:24;100523.66;;;10.41;85.84
48204;BME280;33994;50.998;5.864;2023-03-22T00:50:27;100519.38;;;10.37;85.88
48204;BME280;33994;50.998;5.864;2023-03-22T00:53:31;100522.03;;;10.34;86.13
48204;BME280;33994;50.998;5.864;2023-03-22T00:56:34;100521.22;;;10.31;86.29
48204;BME280;33994;50.998;5.864;2023-03-22T00:59:37;100514.28;;;10.28;86.39
48204;BME280;33994;50.998;5.864;2023-03-22T01:02:42;100500.38;;;10.28;86.52
48204;BME280;33994;50.998;5.864;2023-03-22T01:05:45;100504.75;;;10.27;86.49
48204;BME280;33994;50.998;5.864;2023-03-22T01:08:47;100497.75;;;10.28;86.43
48204;BME280;33994;50.998;5.864;2023-03-22T01:11:51;100496.91;;;10.27;86.50
48204;BME280;33994;50.998;5.864;2023-03-22T01:14:53;100486.53;;;10.22;86.34
48204;BME280;33994;50.998;5.864;2023-03-22T01:17:58;100481.31;;;10.21;86.62
48204;BME280;33994;50.998;5.864;2023-03-22T01:21:02;100477.09;;;10.14;86.94
48204;BME280;33994;50.998;5.864;2023-03-22T01:24:05;100481.50;;;10.12;86.83
48204;BME280;33994;50.998;5.864;2023-03-22T01:27:08;100476.28;;;10.12;86.94
48204;BME280;33994;50.998;5.864;2023-03-22T01:30:11;100473.66;;;10.10;87.03
48204;BME280;33994;50.998;5.864;2023-03-22T01:33:16;100463.22;;;10.10;86.99
48204;BME280;33994;50.998;5.864;2023-03-22T01:36:19;100458.03;;;10.09;87.23
48204;BME280;33994;50.998;5.864;2023-03-22T01:39:22;100454.63;;;10.05;87.21
48204;BME280;33994;50.998;5.864;2023-03-22T01:42:26;100446.03;;;9.98;87.41
48204;BME280;33994;50.998;5.864;2023-03-22T01:45:36;100439.97;;;9.96;87.67
48204;BME280;33994;50.998;5.864;2023-03-22T01:48:43;100435.63;;;9.97;87.73
48204;BME280;33994;50.998;5.864;2023-03-22T01:51:48;100436.47;;;9.97;87.62
48204;BME280;33994;50.998;5.864;2023-03-22T01:54:53;100429.53;;;9.96;87.67
48204;BME280;33994;50.998;5.864;2023-03-22T01:57:56;100424.31;;;9.96;87.72
48204;BME280;33994;50.998;5.864;2023-03-22T02:00:59;100425.16;;;9.97;87.64
48204;BME280;33994;50.998;5.864;2023-03-22T02:04:07;100418.22;;;9.94;87.62
48204;BME280;33994;50.998;5.864;2023-03-22T02:07:13;100415.63;;;9.94;87.60
48204;BME280;33994;50.998;5.864;2023-03-22T02:10:19;100402.59;;;9.93;87.57
48204;BME280;33994;50.998;5.864;2023-03-22T02:13:37;100395.66;;;9.92;87.67
48204;BME280;33994;50.998;5.864;2023-03-22T02:16:57;100387.03;;;9.88;87.71
48204;BME280;33994;50.998;5.864;2023-03-22T02:20:56;100378.34;;;9.86;87.77
48204;BME280;33994;50.998;5.864;2023-03-22T02:24:26;100380.06;;;9.87;87.58
48204;BME280;33994;50.998;5.864;2023-03-22T02:27:57;100373.13;;;9.86;87.45
48204;BME280;33994;50.998;5.864;2023-03-22T02:31:29;100373.22;;;9.82;87.63
48204;BME280;33994;50.998;5.864;2023-03-22T02:35:18;100381.94;;;9.81;87.64
48204;BME280;33994;50.998;5.864;2023-03-22T02:42:20;100384.66;;;9.76;87.93
48204;BME280;33994;50.998;5.864;2023-03-22T02:45:30;100388.13;;;9.75;87.76
48204;BME280;33994;50.998;5.864;2023-03-22T02:48:39;100376.00;;;9.72;87.95
48204;BME280;33994;50.998;5.864;2023-03-22T02:51:46;100379.47;;;9.73;88.09
48204;BME280;33994;50.998;5.864;2023-03-22T02:54:55;100372.50;;;9.72;88.15
48204;BME280;33994;50.998;5.864;2023-03-22T02:58:09;100362.06;;;9.72;88.08
48204;BME280;33994;50.998;5.864;2023-03-22T03:01:17;100374.31;;;9.70;88.25
48204;BME280;33994;50.998;5.864;2023-03-22T03:04:25;100363.84;;;9.70;88.24
48204;BME280;33994;50.998;5.864;2023-03-22T03:07:30;100360.34;;;9.71;88.33
48204;BME280;33994;50.998;5.864;2023-03-22T03:10:33;100351.63;;;9.72;88.03
48204;BME280;33994;50.998;5.864;2023-03-22T03:13:38;100365.53;;;9.74;88.20
48204;BME280;33994;50.998;5.864;2023-03-22T03:16:41;100352.47;;;9.74;88.13
48204;BME280;33994;50.998;5.864;2023-03-22T03:19:54;100359.44;;;9.72;88.20
48204;BME280;33994;50.998;5.864;2023-03-22T03:23:11;100355.06;;;9.74;88.25
48204;BME280;33994;50.998;5.864;2023-03-22T03:26:21;100351.63;;;9.72;88.15
48204;BME280;33994;50.998;5.864;2023-03-22T03:29:34;100361.19;;;9.73;88.12
48204;BME280;33994;50.998;5.864;2023-03-22T03:32:43;100356.88;;;9.70;88.07
48204;BME280;33994;50.998;5.864;2023-03-22T03:35:52;100361.28;;;9.68;88.05
48204;BME280;33994;50.998;5.864;2023-03-22T03:38:58;100350.84;;;9.68;88.15
48204;BME280;33994;50.998;5.864;2023-03-22T03:42:04;100347.44;;;9.65;88.34
48204;BME280;33994;50.998;5.864;2023-03-22T03:45:10;100347.44;;;9.63;88.30
48204;BME280;33994;50.998;5.864;2023-03-22T03:48:18;100342.25;;;9.62;88.42
48204;BME280;33994;50.998;5.864;2023-03-22T03:51:22;100341.41;;;9.60;88.51
48204;BME280;33994;50.998;5.864;2023-03-22T03:54:25;100340.56;;;9.59;88.41
48204;BME280;33994;50.998;5.864;2023-03-22T03:57:28;100329.31;;;9.56;88.53
48204;BME280;33994;50.998;5.864;2023-03-22T04:00:32;100341.53;;;9.54;88.57
48204;BME280;33994;50.998;5.864;2023-03-22T04:03:35;100333.72;;;9.52;88.68
48204;BME280;33994;50.998;5.864;2023-03-22T04:06:38;100328.50;;;9.52;88.70
48204;BME280;33994;50.998;5.864;2023-03-22T04:09:41;100336.31;;;9.54;88.64
48204;BME280;33994;50.998;5.864;2023-03-22T04:12:45;100338.09;;;9.52;88.61
48204;BME280;33994;50.998;5.864;2023-03-22T04:15:52;100342.50;;;9.48;88.86
48204;BME280;33994;50.998;5.864;2023-03-22T04:18:56;100341.59;;;9.49;88.71
48204;BME280;33994;50.998;5.864;2023-03-22T04:21:59;100338.09;;;9.52;88.82
48204;BME280;33994;50.998;5.864;2023-03-22T04:25:02;100340.69;;;9.52;88.66
48204;BME280;33994;50.998;5.864;2023-03-22T04:28:06;100341.59;;;9.51;88.75
48204;BME280;33994;50.998;5.864;2023-03-22T04:31:10;100325.97;;;9.47;88.76
48204;BME280;33994;50.998;5.864;2023-03-22T04:34:13;100332.06;;;9.48;88.84
48204;BME280;33994;50.998;5.864;2023-03-22T04:37:16;100335.56;;;9.47;88.90
48204;BME280;33994;50.998;5.864;2023-03-22T04:40:19;100327.78;;;9.45;89.07
48204;BME280;33994;50.998;5.864;2023-03-22T04:43:22;100332.16;;;9.43;89.09
48204;BME280;33994;50.998;5.864;2023-03-22T04:46:27;100333.84;;;9.46;89.17
48204;BME280;33994;50.998;5.864;2023-03-22T04:49:30;100326.03;;;9.44;89.12
48204;BME280;33994;50.998;5.864;2023-03-22T04:52:34;100326.88;;;9.45;89.18
48204;BME280;33994;50.998;5.864;2023-03-22T04:55:37;100336.47;;;9.44;89.21
48204;BME280;33994;50.998;5.864;2023-03-22T04:58:41;100337.38;;;9.43;89.25
48204;BME280;33994;50.998;5.864;2023-03-22T05:01:46;100330.44;;;9.42;89.29
48204;BME280;33994;50.998;5.864;2023-03-22T05:04:49;100331.28;;;9.41;89.42
48204;BME280;33994;50.998;5.864;2023-03-22T05:07:52;100330.44;;;9.41;89.43
48204;BME280;33994;50.998;5.864;2023-03-22T05:10:57;100327.81;;;9.42;89.29
48204;BME280;33994;50.998;5.864;2023-03-22T05:14:01;100324.34;;;9.42;89.19
48204;BME280;33994;50.998;5.864;2023-03-22T05:17:05;100324.31;;;9.43;89.28
48204;BME280;33994;50.998;5.864;2023-03-22T05:20:09;100319.09;;;9.43;89.19
48204;BME280;33994;50.998;5.864;2023-03-22T05:23:13;100315.59;;;9.44;89.00
48204;BME280;33994;50.998;5.864;2023-03-22T05:26:16;100322.59;;;9.42;89.06
48204;BME280;33994;50.998;5.864;2023-03-22T05:29:19;100322.59;;;9.42;89.15
48204;BME280;33994;50.998;5.864;2023-03-22T05:32:24;100322.66;;;9.39;89.10
48204;BME280;33994;50.998;5.864;2023-03-22T05:35:27;100324.38;;;9.40;89.13
48204;BME280;33994;50.998;5.864;2023-03-22T05:38:30;100321.75;;;9.40;89.08
48204;BME280;33994;50.998;5.864;2023-03-22T05:41:34;100330.47;;;9.39;89.03
48204;BME280;33994;50.998;5.864;2023-03-22T05:44:37;100325.22;;;9.41;88.95
48204;BME280;33994;50.998;5.864;2023-03-22T05:47:42;100328.69;;;9.43;88.87
48204;BME280;33994;50.998;5.864;2023-03-22T05:50:45;100323.41;;;9.44;88.80
48204;BME280;33994;50.998;5.864;2023-03-22T05:53:48;100334.66;;;9.49;88.60
48204;BME280;33994;50.998;5.864;2023-03-22T05:56:51;100337.25;;;9.49;88.44
48204;BME280;33994;50.998;5.864;2023-03-22T05:59:55;100336.31;;;9.52;88.45
48204;BME280;33994;50.998;5.864;2023-03-22T06:03:00;100324.94;;;9.58;88.43
48204;BME280;33994;50.998;5.864;2023-03-22T06:06:03;100322.19;;;9.64;88.03
48204;BME280;33994;50.998;5.864;2023-03-22T06:09:07;100326.44;;;9.68;87.85
48204;BME280;33994;50.998;5.864;2023-03-22T06:12:10;100321.19;;;9.71;87.69
48204;BME280;33994;50.998;5.864;2023-03-22T06:15:13;100321.19;;;9.71;87.51
48204;BME280;33994;50.998;5.864;2023-03-22T06:18:18;100313.34;;;9.71;87.43
48204;BME280;33994;50.998;5.864;2023-03-22T06:21:21;100310.72;;;9.72;87.15
48204;BME280;33994;50.998;5.864;2023-03-22T06:24:24;100311.59;;;9.73;87.10
48204;BME280;33994;50.998;5.864;2023-03-22T06:27:27;100314.16;;;9.74;86.96
48204;BME280;33994;50.998;5.864;2023-03-22T06:30:30;100320.22;;;9.75;86.72
48204;BME280;33994;50.998;5.864;2023-03-22T06:33:35;100320.22;;;9.75;86.48
48204;BME280;33994;50.998;5.864;2023-03-22T06:36:38;100327.09;;;9.79;86.39
48204;BME280;33994;50.998;5.864;2023-03-22T06:39:41;100321.78;;;9.85;86.35
48204;BME280;33994;50.998;5.864;2023-03-22T06:42:45;100331.16;;;9.94;85.88
48204;BME280;33994;50.998;5.864;2023-03-22T06:45:48;100329.31;;;10.01;85.50
48204;BME280;33994;50.998;5.864;2023-03-22T06:48:52;100317.94;;;10.02;85.01
48204;BME280;33994;50.998;5.864;2023-03-22T06:51:56;100323.13;;;10.05;84.76
48204;BME280;33994;50.998;5.864;2023-03-22T06:54:59;100324.84;;;10.06;84.29
48204;BME280;33994;50.998;5.864;2023-03-22T06:58:02;100330.84;;;10.09;83.81
48204;BME280;33994;50.998;5.864;2023-03-22T07:01:06;100329.16;;;10.08;83.66
48204;BME280;33994;50.998;5.864;2023-03-22T07:04:10;100322.13;;;10.10;83.27
48204;BME280;33994;50.998;5.864;2023-03-22T07:07:14;100324.72;;;10.12;82.99
48204;BME280;33994;50.998;5.864;2023-03-22T07:10:17;100316.84;;;10.13;82.73
48204;BME280;33994;50.998;5.864;2023-03-22T07:13:20;100325.47;;;10.17;82.19
48204;BME280;33994;50.998;5.864;2023-03-22T07:16:24;100330.75;;;10.15;81.89
48204;BME280;33994;50.998;5.864;2023-03-22T07:19:28;100323.75;;;10.16;81.74
48204;BME280;33994;50.998;5.864;2023-03-22T07:22:31;100331.59;;;10.16;81.58
48204;BME280;33994;50.998;5.864;2023-03-22T07:25:34;100324.56;;;10.19;81.39
48204;BME280;33994;50.998;5.864;2023-03-22T07:28:37;100326.22;;;10.23;81.04
48204;BME280;33994;50.998;5.864;2023-03-22T07:31:41;100325.25;;;10.28;80.88
48204;BME280;33994;50.998;5.864;2023-03-22T07:34:45;100322.59;;;10.29;80.62
48204;BME280;33994;50.998;5.864;2023-03-22T07:37:48;100325.19;;;10.29;80.49
48204;BME280;33994;50.998;5.864;2023-03-22T07:40:52;100324.28;;;10.33;80.28
48204;BME280;33994;50.998;5.864;2023-03-22T07:43:55;100335.63;;;10.31;80.27
48204;BME280;33994;50.998;5.864;2023-03-22T07:46:59;100333.03;;;10.29;80.27
48204;BME280;33994;50.998;5.864;2023-03-22T07:50:04;100331.31;;;10.30;80.04
48204;BME280;33994;50.998;5.864;2023-03-22T07:53:07;100329.50;;;10.33;79.92
48204;BME280;33994;50.998;5.864;2023-03-22T07:56:11;100340.72;;;10.38;79.70
48204;BME280;33994;50.998;5.864;2023-03-22T07:59:15;100337.25;;;10.36;79.41
48204;BME280;33994;50.998;5.864;2023-03-22T08:02:18;100339.00;;;10.37;79.15
48204;BME280;33994;50.998;5.864;2023-03-22T08:05:23;100340.81;;;10.34;78.98
48204;BME280;33994;50.998;5.864;2023-03-22T08:08:26;100339.78;;;10.41;79.06
48204;BME280;33994;50.998;5.864;2023-03-22T08:11:30;100332.63;;;10.49;78.48
48204;BME280;33994;50.998;5.864;2023-03-22T08:14:33;100336.69;;;10.62;78.30
48204;BME280;33994;50.998;5.864;2023-03-22T08:17:36;100330.34;;;10.71;77.19
48204;BME280;33994;50.998;5.864;2023-03-22T08:20:41;100338.13;;;10.74;76.35
48204;BME280;33994;50.998;5.864;2023-03-22T08:23:44;100338.00;;;10.80;76.12
48204;BME280;33994;50.998;5.864;2023-03-22T08:26:47;100333.41;;;10.91;75.71
48204;BME280;33994;50.998;5.864;2023-03-22T08:29:50;100324.53;;;10.99;74.72
48204;BME280;33994;50.998;5.864;2023-03-22T08:32:53;100319.97;;;11.05;74.02
48204;BME280;33994;50.998;5.864;2023-03-22T08:36:05;100330.31;;;11.11;72.68
48204;BME280;33994;50.998;5.864;2023-03-22T08:39:08;100319.53;;;11.24;72.55
48204;BME280;33994;50.998;5.864;2023-03-22T08:42:12;100319.41;;;11.28;71.51
48204;BME280;33994;50.998;5.864;2023-03-22T08:45:15;100315.91;;;11.29;70.70
48204;BME280;33994;50.998;5.864;2023-03-22T08:48:18;100327.19;;;11.31;70.47
48204;BME280;33994;50.998;5.864;2023-03-22T08:51:23;100336.72;;;11.34;70.04
48204;BME280;33994;50.998;5.864;2023-03-22T08:54:26;100338.34;;;11.38;70.06
48204;BME280;33994;50.998;5.864;2023-03-22T08:57:29;100338.22;;;11.42;70.20
48204;BME280;33994;50.998;5.864;2023-03-22T09:00:32;100326.06;;;11.40;69.95
48204;BME280;33994;50.998;5.864;2023-03-22T09:03:35;100314.53;;;11.47;69.63
48204;BME280;33994;50.998;5.864;2023-03-22T09:06:40;100322.19;;;11.55;69.62
48204;BME280;33994;50.998;5.864;2023-03-22T09:09:43;100322.72;;;11.67;69.25
48204;BME280;33994;50.998;5.864;2023-03-22T09:12:46;100325.09;;;11.77;69.08
48204;BME280;33994;50.998;5.864;2023-03-22T09:15:49;100318.00;;;11.80;69.12
48204;BME280;33994;50.998;5.864;2023-03-22T09:18:53;100324.06;;;11.82;69.15
48204;BME280;33994;50.998;5.864;2023-03-22T09:21:57;100314.38;;;11.86;68.82
48204;BME280;33994;50.998;5.864;2023-03-22T09:25:00;100321.19;;;11.91;68.50
48204;BME280;33994;50.998;5.864;2023-03-22T09:28:04;100311.41;;;11.97;68.23
48204;BME280;33994;50.998;5.864;2023-03-22T09:31:08;100307.81;;;12.01;67.63
48204;BME280;33994;50.998;5.864;2023-03-22T09:34:12;100315.41;;;12.10;67.14
48204;BME280;33994;50.998;5.864;2023-03-22T09:37:18;100315.28;;;12.14;66.06
48204;BME280;33994;50.998;5.864;2023-03-22T09:40:24;100312.78;;;12.10;65.70
48204;BME280;33994;50.998;5.864;2023-03-22T09:43:32;100319.03;;;12.06;65.55
48204;BME280;33994;50.998;5.864;2023-03-22T09:46:38;100326.16;;;12.01;65.65
48204;BME280;33994;50.998;5.864;2023-03-22T09:49:45;100323.63;;;11.98;65.83
48204;BME280;33994;50.998;5.864;2023-03-22T09:52:52;100329.03;;;11.91;65.96
48204;BME280;33994;50.998;5.864;2023-03-22T09:58:20;100309.06;;;11.87;66.38
48204;BME280;33994;50.998;5.864;2023-03-22T10:01:29;100315.09;;;11.89;66.21
48204;BME280;33994;50.998;5.864;2023-03-22T10:04:43;100310.69;;;11.91;66.32
48204;BME280;33994;50.998;5.864;2023-03-22T10:08:10;100310.69;;;11.91;66.18
48204;BME280;33994;50.998;5.864;2023-03-22T10:11:22;100318.41;;;11.96;66.21
48204;BME280;33994;50.998;5.864;2023-03-22T10:14:30;100305.94;;;12.06;66.27
48204;BME280;33994;50.998;5.864;2023-03-22T10:17:38;100294.38;;;12.11;66.21
48204;BME280;33994;50.998;5.864;2023-03-22T10:20:48;100303.78;;;12.18;65.64
48204;BME280;33994;50.998;5.864;2023-03-22T10:23:56;100291.44;;;12.24;65.66
48204;BME280;33994;50.998;5.864;2023-03-22T10:27:01;100291.25;;;12.30;65.37
48204;BME280;33994;50.998;5.864;2023-03-22T10:30:15;100288.41;;;12.37;65.09
48204;BME280;33994;50.998;5.864;2023-03-22T10:33:27;100282.16;;;12.41;65.03
48204;BME280;33994;50.998;5.864;2023-03-22T10:36:34;100288.53;;;12.33;64.73
48204;BME280;33994;50.998;5.864;2023-03-22T10:39:41;100283.31;;;12.31;64.85
48204;BME280;33994;50.998;5.864;2023-03-22T10:42:52;100287.13;;;12.21;64.79
48204;BME280;33994;50.998;5.864;2023-03-22T10:45:58;100288.13;;;12.17;64.85
48204;BME280;33994;50.998;5.864;2023-03-22T10:49:04;100296.78;;;12.19;65.18
48204;BME280;33994;50.998;5.864;2023-03-22T10:52:20;100293.09;;;12.26;65.01
48204;BME280;33994;50.998;5.864;2023-03-22T10:55:26;100284.25;;;12.30;64.93
48204;BME280;33994;50.998;5.864;2023-03-22T10:58:30;100279.63;;;12.38;64.74
48204;BME280;33994;50.998;5.864;2023-03-22T11:01:36;100265.72;;;12.36;64.36
48204;BME280;33994;50.998;5.864;2023-03-22T11:04:47;100282.16;;;12.41;64.57
48204;BME280;33994;50.998;5.864;2023-03-22T11:07:51;100283.84;;;12.43;64.67
48204;BME280;33994;50.998;5.864;2023-03-22T11:10:54;100282.91;;;12.45;65.38
48204;BME280;33994;50.998;5.864;2023-03-22T11:14:04;100281.19;;;12.44;64.55
48204;BME280;33994;50.998;5.864;2023-03-22T11:17:11;100283.84;;;12.43;64.58
48204;BME280;33994;50.998;5.864;2023-03-22T11:20:18;100293.50;;;12.42;64.42
48204;BME280;33994;50.998;5.864;2023-03-22T11:23:23;100290.94;;;12.40;64.61
48204;BME280;33994;50.998;5.864;2023-03-22T11:26:30;100283.84;;;12.43;64.85
48204;BME280;33994;50.998;5.864;2023-03-22T11:29:43;100269.84;;;12.44;64.56
48204;BME280;33994;50.998;5.864;2023-03-22T11:32:48;100281.16;;;12.46;64.65
48204;BME280;33994;50.998;5.864;2023-03-22T11:35:54;100270.72;;;12.44;64.77
48204;BME280;33994;50.998;5.864;2023-03-22T11:38:58;100276.00;;;12.43;64.90
48204;BME280;33994;50.998;5.864;2023-03-22T11:42:04;100266.31;;;12.45;64.89
48204;BME280;33994;50.998;5.864;2023-03-22T11:45:13;100273.38;;;12.43;64.89
48204;BME280;33994;50.998;5.864;2023-03-22T11:48:22;100269.09;;;12.40;64.82
48204;BME280;33994;50.998;5.864;2023-03-22T11:51:28;100269.97;;;12.39;64.99
48204;BME280;33994;50.998;5.864;2023-03-22T11:54:34;100271.72;;;12.40;65.05
48204;BME280;33994;50.998;5.864;2023-03-22T11:57:38;100261.25;;;12.38;65.31
48204;BME280;33994;50.998;5.864;2023-03-22T12:00:43;100255.00;;;12.43;65.60
48204;BME280;33994;50.998;5.864;2023-03-22T12:03:51;100265.25;;;12.50;65.42
48204;BME280;33994;50.998;5.864;2023-03-22T12:06:58;100259.97;;;12.52;65.37
48204;BME280;33994;50.998;5.864;2023-03-22T12:10:05;100255.44;;;12.57;65.32
48204;BME280;33994;50.998;5.864;2023-03-22T12:13:15;100258.91;;;12.57;65.20
48204;BME280;33994;50.998;5.864;2023-03-22T12:16:24;100263.31;;;12.57;64.99
48204;BME280;33994;50.998;5.864;2023-03-22T12:19:40;100255.66;;;12.51;64.91
48204;BME280;33994;50.998;5.864;2023-03-22T12:22:48;100246.97;;;12.49;65.02
48204;BME280;33994;50.998;5.864;2023-03-22T12:25:55;100251.91;;;12.58;65.37
48204;BME280;33994;50.998;5.864;2023-03-22T12:29:03;100248.16;;;12.65;65.21
48204;BME280;33994;50.998;5.864;2023-03-22T12:32:10;100251.63;;;12.67;65.18
48204;BME280;33994;50.998;5.864;2023-03-22T12:35:20;100241.13;;;12.67;65.26
48204;BME280;33994;50.998;5.864;2023-03-22T12:38:29;100246.28;;;12.70;65.49
48204;BME280;33994;50.998;5.864;2023-03-22T12:41:37;100242.63;;;12.74;65.42
48204;BME280;33994;50.998;5.864;2023-03-22T12:44:43;100250.50;;;12.74;65.26
48204;BME280;33994;50.998;5.864;2023-03-22T12:47:51;100246.91;;;12.77;65.29
48204;BME280;33994;50.998;5.864;2023-03-22T12:51:01;100245.97;;;12.79;65.28
48204;BME280;33994;50.998;5.864;2023-03-22T12:54:10;100240.63;;;12.82;65.10
48204;BME280;33994;50.998;5.864;2023-03-22T12:57:14;100241.41;;;12.84;65.11
48204;BME280;33994;50.998;5.864;2023-03-22T13:00:19;100236.22;;;12.83;65.18
48204;BME280;33994;50.998;5.864;2023-03-22T13:03:26;100229.25;;;12.82;65.08
48204;BME280;33994;50.998;5.864;2023-03-22T13:06:33;100232.78;;;12.81;65.10
48204;BME280;33994;50.998;5.864;2023-03-22T13:09:56;100227.50;;;12.82;65.28
48204;BME280;33994;50.998;5.864;2023-03-22T13:13:10;100231.81;;;12.83;65.05
48204;BME280;33994;50.998;5.864;2023-03-22T13:16:17;100216.91;;;12.85;65.00
48204;BME280;33994;50.998;5.864;2023-03-22T13:19:31;100218.59;;;12.86;64.87
48204;BME280;33994;50.998;5.864;2023-03-22T13:26:30;100223.88;;;12.85;65.06
48204;BME280;33994;50.998;5.864;2023-03-22T13:29:35;100225.53;;;12.89;65.22
48204;BME280;33994;50.998;5.864;2023-03-22T13:32:45;100222.25;;;12.82;64.83
48204;BME280;33994;50.998;5.864;2023-03-22T13:35:51;100218.09;;;12.75;64.83
48204;BME280;33994;50.998;5.864;2023-03-22T13:38:57;100198.81;;;12.76;64.72
48204;BME280;33994;50.998;5.864;2023-03-22T13:42:07;100215.38;;;12.78;64.68
48204;BME280;33994;50.998;5.864;2023-03-22T13:45:28;100205.69;;;12.80;64.80
48204;BME280;33994;50.998;5.864;2023-03-22T13:48:41;100198.53;;;12.85;64.92
48204;BME280;33994;50.998;5.864;2023-03-22T13:51:46;100200.34;;;12.83;64.99
48204;BME280;33994;50.998;5.864;2023-03-22T13:54:52;100200.34;;;12.83;65.22
48204;BME280;33994;50.998;5.864;2023-03-22T13:57:59;100196.78;;;12.84;65.35
48204;BME280;33994;50.998;5.864;2023-03-22T14:01:04;100196.03;;;12.81;65.78
48204;BME280;33994;50.998;5.864;2023-03-22T14:04:10;100203.06;;;12.80;66.09
48204;BME280;33994;50.998;5.864;2023-03-22T14:07:20;100203.97;;;12.79;66.32
48204;BME280;33994;50.998;5.864;2023-03-22T14:10:27;100202.25;;;12.78;66.43
48204;BME280;33994;50.998;5.864;2023-03-22T14:13:40;100213.72;;;12.76;66.69
48204;BME280;33994;50.998;5.864;2023-03-22T14:16:48;100196.19;;;12.76;66.88
48204;BME280;33994;50.998;5.864;2023-03-22T14:19:51;100205.06;;;12.74;67.42
48204;BME280;33994;50.998;5.864;2023-03-22T14:22:58;100203.31;;;12.73;67.50
48204;BME280;33994;50.998;5.864;2023-03-22T14:26:05;100200.75;;;12.71;67.86
48204;BME280;33994;50.998;5.864;2023-03-22T14:29:13;100202.53;;;12.71;68.14
48204;BME280;33994;50.998;5.864;2023-03-22T14:32:19;100204.16;;;12.73;68.22
48204;BME280;33994;50.998;5.864;2023-03-22T14:35:26;100193.81;;;12.70;68.35
48204;BME280;33994;50.998;5.864;2023-03-22T14:38:34;100197.38;;;12.68;68.54
48204;BME280;33994;50.998;5.864;2023-03-22T14:41:56;100186.03;;;12.67;68.89
48204;BME280;33994;50.998;5.864;2023-03-22T14:45:05;100198.28;;;12.67;68.86
48204;BME280;33994;50.998;5.864;2023-03-22T14:48:13;100193.91;;;12.67;68.97
48204;BME280;33994;50.998;5.864;2023-03-22T14:51:19;100185.09;;;12.68;68.94
48204;BME280;33994;50.998;5.864;2023-03-22T14:54:27;100186.03;;;12.67;69.11
48204;BME280;33994;50.998;5.864;2023-03-22T14:57:32;100179.97;;;12.65;69.35
48204;BME280;33994;50.998;5.864;2023-03-22T15:00:37;100172.16;;;12.63;69.41
48204;BME280;33994;50.998;5.864;2023-03-22T15:03:42;100161.56;;;12.67;69.39
48204;BME280;33994;50.998;5.864;2023-03-22T15:06:48;100163.16;;;12.71;69.53
48204;BME280;33994;50.998;5.864;2023-03-22T15:09:52;100158.72;;;12.73;69.54
48204;BME280;33994;50.998;5.864;2023-03-22T15:12:56;100170.06;;;12.73;69.71
48204;BME280;33994;50.998;5.864;2023-03-22T15:16:03;100155.19;;;12.74;70.09
48204;BME280;33994;50.998;5.864;2023-03-22T15:19:11;100160.38;;;12.75;69.89
48204;BME280;33994;50.998;5.864;2023-03-22T15:22:18;100154.31;;;12.73;69.93
48204;BME280;33994;50.998;5.864;2023-03-22T15:25:27;100145.59;;;12.73;70.17
48204;BME280;33994;50.998;5.864;2023-03-22T15:28:37;100144.63;;;12.75;70.41
48204;BME280;33994;50.998;5.864;2023-03-22T15:31:44;100138.53;;;12.75;70.21
48204;BME280;33994;50.998;5.864;2023-03-22T15:34:50;100138.47;;;12.76;70.12
48204;BME280;33994;50.998;5.864;2023-03-22T15:37:53;100136.59;;;12.80;70.03
48204;BME280;33994;50.998;5.864;2023-03-22T15:40:56;100141.66;;;12.86;69.98
48204;BME280;33994;50.998;5.864;2023-03-22T15:44:03;100135.53;;;12.85;70.06
48204;BME280;33994;50.998;5.864;2023-03-22T15:47:16;100135.53;;;12.85;69.95
48204;BME280;33994;50.998;5.864;2023-03-22T15:50:20;100138.94;;;12.87;69.89
48204;BME280;33994;50.998;5.864;2023-03-22T15:53:28;100137.25;;;12.86;69.87
48204;BME280;33994;50.998;5.864;2023-03-22T15:56:35;100139.97;;;12.83;69.66
48204;BME280;33994;50.998;5.864;2023-03-22T15:59:51;100134.84;;;12.80;69.50
48204;BME280;33994;50.998;5.864;2023-03-22T16:02:59;100140.06;;;12.80;69.49
48204;BME280;33994;50.998;5.864;2023-03-22T16:06:03;100141.84;;;12.80;69.19
48204;BME280;33994;50.998;5.864;2023-03-22T16:09:07;100142.69;;;12.80;69.21
48204;BME280;33994;50.998;5.864;2023-03-22T16:12:13;100141.81;;;12.81;68.99
48204;BME280;33994;50.998;5.864;2023-03-22T16:15:19;100144.44;;;12.81;68.97
48204;BME280;33994;50.998;5.864;2023-03-22T16:18:24;100153.19;;;12.80;68.80
48204;BME280;33994;50.998;5.864;2023-03-22T16:21:28;100156.75;;;12.79;68.65
48204;BME280;33994;50.998;5.864;2023-03-22T16:24:32;100143.72;;;12.76;68.56
48204;BME280;33994;50.998;5.864;2023-03-22T16:27:35;100144.53;;;12.78;68.55